sensor_id;sensor_type;location;lat;lon;timestamp;pressure;altitude;pressure_sealevel;temperature;humidity
44131;BME280;29792;48.726;9.248;2023-05-21T00:00:04;96522.69;;;17.43;86.40
44131;BME280;29792;48.726;9.248;2023-05-21T00:02:34;96521.91;;;17.43;86.65
44131;BME280;29792;48.726;9.248;2023-05-21T00:04:59;96526.28;;;17.42;86.84
44131;BME280;29792;48.726;9.248;2023-05-21T00:07:25;96521.28;;;17.41;87.00
44131;BME280;29792;48.726;9.248;2023-05-21T00:09:50;96515.47;;;17.39;87.09
44131;BME280;29792;48.726;9.248;2023-05-21T00:12:16;96510.63;;;17.36;87.47
44131;BME280;29792;48.726;9.248;2023-05-21T00:14:42;96514.22;;;17.35;87.50
44131;BME280;29792;48.726;9.248;2023-05-21T00:17:07;96512.78;;;17.32;87.96
44131;BME280;29792;48.726;9.248;2023-05-21T00:19:32;96510.38;;;17.31;88.20
44131;BME280;29792;48.726;9.248;2023-05-21T00:21:58;96508.91;;;17.28;88.20
44131;BME280;29792;48.726;9.248;2023-05-21T00:24:26;96500.34;;;17.28;88.63
44131;BME280;29792;48.726;9.248;2023-05-21T00:26:51;96497.97;;;17.26;88.93
44131;BME280;29792;48.726;9.248;2023-05-21T00:29:17;96497.97;;;17.26;88.74
44131;BME280;29792;48.726;9.248;2023-05-21T00:31:42;96491.16;;;17.25;88.84
44131;BME280;29792;48.726;9.248;2023-05-21T00:34:07;96486.16;;;17.24;89.21
44131;BME280;29792;48.726;9.248;2023-05-21T00:36:32;96482.94;;;17.22;89.32
44131;BME280;29792;48.726;9.248;2023-05-21T00:38:58;96485.69;;;17.20;89.39
44131;BME280;29792;48.726;9.248;2023-05-21T00:41:24;96486.69;;;17.19;89.70
44131;BME280;29792;48.726;9.248;2023-05-21T00:43:50;96486.69;;;17.19;89.89
44131;BME280;29792;48.726;9.248;2023-05-21T00:46:18;96479.91;;;17.18;89.50
44131;BME280;29792;48.726;9.248;2023-05-21T00:48:44;96480.25;;;17.15;90.01
44131;BME280;29792;48.726;9.248;2023-05-21T00:51:10;96481.41;;;17.12;90.48
44131;BME280;29792;48.726;9.248;2023-05-21T00:53:36;96476.22;;;17.12;90.45
44131;BME280;29792;48.726;9.248;2023-05-21T00:56:02;96482.59;;;17.10;90.67
44131;BME280;29792;48.726;9.248;2023-05-21T00:58:28;96479.38;;;17.08;90.57
44131;BME280;29792;48.726;9.248;2023-05-21T01:00:54;96483.91;;;17.06;91.23
44131;BME280;29792;48.726;9.248;2023-05-21T01:03:21;96479.06;;;17.03;91.27
44131;BME280;29792;48.726;9.248;2023-05-21T01:05:49;96468.91;;;17.01;91.40
44131;BME280;29792;48.726;9.248;2023-05-21T01:08:15;96474.91;;;17.02;91.79
44131;BME280;29792;48.726;9.248;2023-05-21T01:10:40;96469.09;;;17.00;91.57
44131;BME280;29792;48.726;9.248;2023-05-21T01:13:06;96473.28;;;17.01;91.45
44131;BME280;29792;48.726;9.248;2023-05-21T01:15:31;96479.59;;;16.98;91.69
44131;BME280;29792;48.726;9.248;2023-05-21T01:17:57;96467.81;;;16.96;91.77
44131;BME280;29792;48.726;9.248;2023-05-21T01:20:23;96472.38;;;16.94;92.12
44131;BME280;29792;48.726;9.248;2023-05-21T01:22:51;96468.34;;;16.91;92.42
44131;BME280;29792;48.726;9.248;2023-05-21T01:25:17;96466.56;;;16.92;92.52
44131;BME280;29792;48.726;9.248;2023-05-21T01:27:42;96459.78;;;16.91;92.41
44131;BME280;29792;48.726;9.248;2023-05-21T01:30:08;96456.56;;;16.89;92.22
44131;BME280;29792;48.726;9.248;2023-05-21T01:32:47;96455.59;;;16.90;92.84
44131;BME280;29792;48.726;9.248;2023-05-21T01:35:29;96454.16;;;16.87;92.32
44131;BME280;29792;48.726;9.248;2023-05-21T01:38:17;96458.06;;;16.83;93.13
44131;BME280;29792;48.726;9.248;2023-05-21T01:40:52;96457.28;;;16.83;93.26
44131;BME280;29792;48.726;9.248;2023-05-21T01:43:18;96461.81;;;16.81;93.33
44131;BME280;29792;48.726;9.248;2023-05-21T01:45:45;96461.16;;;16.78;93.51
44131;BME280;29792;48.726;9.248;2023-05-21T01:48:11;96460.56;;;16.76;93.89
44131;BME280;29792;48.726;9.248;2023-05-21T01:50:39;96459.13;;;16.74;93.99
44131;BME280;29792;48.726;9.248;2023-05-21T01:53:05;96460.09;;;16.73;93.79
44131;BME280;29792;48.726;9.248;2023-05-21T01:55:31;96450.13;;;16.70;94.16
44131;BME280;29792;48.726;9.248;2023-05-21T01:57:57;96454.50;;;16.69;94.58
44131;BME280;29792;48.726;9.248;2023-05-21T02:00:24;96447.88;;;16.67;94.47
44131;BME280;29792;48.726;9.248;2023-05-21T02:02:52;96454.81;;;16.66;94.81
44131;BME280;29792;48.726;9.248;2023-05-21T02:05:17;96449.00;;;16.64;95.01
44131;BME280;29792;48.726;9.248;2023-05-21T02:07:44;96448.22;;;16.64;95.03
44131;BME280;29792;48.726;9.248;2023-05-21T02:10:10;96443.41;;;16.61;95.22
44131;BME280;29792;48.726;9.248;2023-05-21T02:12:36;96453.75;;;16.61;95.62
44131;BME280;29792;48.726;9.248;2023-05-21T02:15:02;96452.44;;;16.57;95.43
44131;BME280;29792;48.726;9.248;2023-05-21T02:17:27;96454.38;;;16.55;95.36
44131;BME280;29792;48.726;9.248;2023-05-21T02:19:55;96457.16;;;16.53;96.00
44131;BME280;29792;48.726;9.248;2023-05-21T02:22:21;96457.50;;;16.50;96.11
44131;BME280;29792;48.726;9.248;2023-05-21T02:24:46;96460.44;;;16.47;96.35
44131;BME280;29792;48.726;9.248;2023-05-21T02:27:11;96453.03;;;16.44;96.66
44131;BME280;29792;48.726;9.248;2023-05-21T02:29:38;96448.84;;;16.43;97.21
44131;BME280;29792;48.726;9.248;2023-05-21T02:32:03;96451.75;;;16.40;97.10
44131;BME280;29792;48.726;9.248;2023-05-21T02:34:29;96443.38;;;16.38;97.05
44131;BME280;29792;48.726;9.248;2023-05-21T02:36:58;96443.09;;;16.33;97.86
44131;BME280;29792;48.726;9.248;2023-05-21T02:39:24;96446.81;;;16.30;97.93
44131;BME280;29792;48.726;9.248;2023-05-21T02:41:50;96438.63;;;16.27;98.23
44131;BME280;29792;48.726;9.248;2023-05-21T02:44:16;96440.38;;;16.26;98.68
44131;BME280;29792;48.726;9.248;2023-05-21T02:46:42;96431.84;;;16.26;99.04
44131;BME280;29792;48.726;9.248;2023-05-21T02:49:08;96440.38;;;16.26;99.08
44131;BME280;29792;48.726;9.248;2023-05-21T02:51:33;96436.19;;;16.25;99.17
44131;BME280;29792;48.726;9.248;2023-05-21T02:53:58;96437.97;;;16.25;99.10
44131;BME280;29792;48.726;9.248;2023-05-21T02:56:23;96442.34;;;16.24;99.61
44131;BME280;29792;48.726;9.248;2023-05-21T02:58:50;96437.53;;;16.21;99.23
44131;BME280;29792;48.726;9.248;2023-05-21T03:01:16;96426.38;;;16.21;99.61
44131;BME280;29792;48.726;9.248;2023-05-21T03:03:41;96431.88;;;16.18;99.83
44131;BME280;29792;48.726;9.248;2023-05-21T03:06:06;96425.28;;;16.15;99.90
44131;BME280;29792;48.726;9.248;2023-05-21T03:08:34;96428.03;;;16.14;100.00
44131;BME280;29792;48.726;9.248;2023-05-21T03:10:59;96424.81;;;16.12;100.00
44131;BME280;29792;48.726;9.248;2023-05-21T03:13:24;96429.34;;;16.10;100.00
44131;BME280;29792;48.726;9.248;2023-05-21T03:15:50;96430.50;;;16.07;100.00
44131;BME280;29792;48.726;9.248;2023-05-21T03:18:20;96422.91;;;16.06;100.00
44131;BME280;29792;48.726;9.248;2023-05-21T03:20:45;96418.25;;;16.01;100.00
44131;BME280;29792;48.726;9.248;2023-05-21T03:23:10;96415.03;;;15.99;100.00
44131;BME280;29792;48.726;9.248;2023-05-21T03:25:37;96422.97;;;15.97;100.00
44131;BME280;29792;48.726;9.248;2023-05-21T03:28:02;96418.94;;;15.95;100.00
44131;BME280;29792;48.726;9.248;2023-05-21T03:30:28;96414.94;;;15.92;100.00
44131;BME280;29792;48.726;9.248;2023-05-21T03:32:53;96416.06;;;15.90;100.00
44131;BME280;29792;48.726;9.248;2023-05-21T03:35:20;96411.91;;;15.89;100.00
44131;BME280;29792;48.726;9.248;2023-05-21T03:37:45;96411.25;;;15.87;100.00
44131;BME280;29792;48.726;9.248;2023-05-21T03:40:11;96417.38;;;15.86;100.00
44131;BME280;29792;48.726;9.248;2023-05-21T03:42:36;96411.59;;;15.84;100.00
44131;BME280;29792;48.726;9.248;2023-05-21T03:45:02;96411.75;;;15.82;100.00
44131;BME280;29792;48.726;9.248;2023-05-21T03:47:27;96414.31;;;15.82;100.00
44131;BME280;29792;48.726;9.248;2023-05-21T03:49:53;96418.88;;;15.80;100.00
44131;BME280;29792;48.726;9.248;2023-05-21T03:52:18;96424.84;;;15.81;100.00
44131;BME280;29792;48.726;9.248;2023-05-21T03:54:43;96425.19;;;15.78;100.00
44131;BME280;29792;48.726;9.248;2023-05-21T03:57:09;96425.50;;;15.75;100.00
44131;BME280;29792;48.726;9.248;2023-05-21T03:59:34;96426.69;;;15.72;100.00
44131;BME280;29792;48.726;9.248;2023-05-21T04:01:59;96427.00;;;15.69;100.00
44131;BME280;29792;48.726;9.248;2023-05-21T04:04:24;96431.03;;;15.72;100.00
44131;BME280;29792;48.726;9.248;2023-05-21T04:06:50;96426.84;;;15.71;100.00
44131;BME280;29792;48.726;9.248;2023-05-21T04:09:15;96427.00;;;15.69;100.00
44131;BME280;29792;48.726;9.248;2023-05-21T04:11:40;96434.91;;;15.68;100.00
44131;BME280;29792;48.726;9.248;2023-05-21T04:14:06;96436.03;;;15.65;100.00
44131;BME280;29792;48.726;9.248;2023-05-21T04:16:31;96443.00;;;15.64;100.00
44131;BME280;29792;48.726;9.248;2023-05-21T04:18:58;96439.63;;;15.64;100.00
44131;BME280;29792;48.726;9.248;2023-05-21T04:21:24;96441.19;;;15.65;100.00
44131;BME280;29792;48.726;9.248;2023-05-21T04:23:49;96449.75;;;15.65;100.00
44131;BME280;29792;48.726;9.248;2023-05-21T04:26:14;96450.56;;;15.66;100.00
44131;BME280;29792;48.726;9.248;2023-05-21T04:28:40;96448.19;;;15.64;100.00
44131;BME280;29792;48.726;9.248;2023-05-21T04:31:06;96456.69;;;15.65;100.00
44131;BME280;29792;48.726;9.248;2023-05-21T04:33:32;96457.69;;;15.64;100.00
44131;BME280;29792;48.726;9.248;2023-05-21T04:35:59;96456.88;;;15.63;100.00
44131;BME280;29792;48.726;9.248;2023-05-21T04:38:25;96464.63;;;15.63;100.00
44131;BME280;29792;48.726;9.248;2023-05-21T04:40:51;96461.25;;;15.63;100.00
44131;BME280;29792;48.726;9.248;2023-05-21T04:43:16;96462.88;;;15.64;100.00
44131;BME280;29792;48.726;9.248;2023-05-21T04:45:42;96467.84;;;15.65;100.00
44131;BME280;29792;48.726;9.248;2023-05-21T04:48:07;96467.03;;;15.65;100.00
44131;BME280;29792;48.726;9.248;2023-05-21T04:50:33;96466.88;;;15.67;100.00
44131;BME280;29792;48.726;9.248;2023-05-21T04:52:58;96464.94;;;15.69;100.00
44131;BME280;29792;48.726;9.248;2023-05-21T04:55:24;96462.19;;;15.70;100.00
44131;BME280;29792;48.726;9.248;2023-05-21T04:57:49;96464.94;;;15.69;100.00
44131;BME280;29792;48.726;9.248;2023-05-21T05:00:15;96471.38;;;15.73;100.00
44131;BME280;29792;48.726;9.248;2023-05-21T05:02:41;96471.19;;;15.74;100.00
44131;BME280;29792;48.726;9.248;2023-05-21T05:05:06;96472.00;;;15.75;100.00
44131;BME280;29792;48.726;9.248;2023-05-21T05:07:32;96476.03;;;15.77;100.00
44131;BME280;29792;48.726;9.248;2023-05-21T05:09:57;96469.09;;;15.78;100.00
44131;BME280;29792;48.726;9.248;2023-05-21T05:12:22;96475.69;;;15.80;100.00
44131;BME280;29792;48.726;9.248;2023-05-21T05:14:48;96470.53;;;15.80;100.00
44131;BME280;29792;48.726;9.248;2023-05-21T05:17:13;96473.94;;;15.81;100.00
44131;BME280;29792;48.726;9.248;2023-05-21T05:19:41;96477.28;;;15.81;100.00
44131;BME280;29792;48.726;9.248;2023-05-21T05:22:06;96475.19;;;15.85;100.00
44131;BME280;29792;48.726;9.248;2023-05-21T05:24:31;96473.88;;;15.89;100.00
44131;BME280;29792;48.726;9.248;2023-05-21T05:26:57;96474.34;;;15.92;100.00
44131;BME280;29792;48.726;9.248;2023-05-21T05:29:22;96467.41;;;15.93;100.00
44131;BME280;29792;48.726;9.248;2023-05-21T05:31:47;96468.03;;;15.95;100.00
44131;BME280;29792;48.726;9.248;2023-05-21T05:34:13;96471.88;;;15.99;100.00
44131;BME280;29792;48.726;9.248;2023-05-21T05:36:38;96464.59;;;16.02;100.00
44131;BME280;29792;48.726;9.248;2023-05-21T05:39:03;96472.00;;;16.06;100.00
44131;BME280;29792;48.726;9.248;2023-05-21T05:41:29;96473.44;;;16.08;100.00
44131;BME280;29792;48.726;9.248;2023-05-21T05:43:54;96477.94;;;16.14;100.00
44131;BME280;29792;48.726;9.248;2023-05-21T05:46:19;96482.75;;;16.17;100.00
44131;BME280;29792;48.726;9.248;2023-05-21T05:48:44;96480.66;;;16.21;100.00
44131;BME280;29792;48.726;9.248;2023-05-21T05:51:10;96471.41;;;16.26;100.00
44131;BME280;29792;48.726;9.248;2023-05-21T05:53:36;96481.06;;;16.32;100.00
44131;BME280;29792;48.726;9.248;2023-05-21T05:56:01;96482.13;;;16.38;100.00
44131;BME280;29792;48.726;9.248;2023-05-21T05:58:28;96480.03;;;16.41;100.00
44131;BME280;29792;48.726;9.248;2023-05-21T06:00:53;96481.31;;;16.46;100.00
44131;BME280;29792;48.726;9.248;2023-05-21T06:03:19;96481.75;;;16.49;100.00
44131;BME280;29792;48.726;9.248;2023-05-21T06:05:44;96479.28;;;16.56;100.00
44131;BME280;29792;48.726;9.248;2023-05-21T06:08:09;96471.19;;;16.59;100.00
44131;BME280;29792;48.726;9.248;2023-05-21T06:10:35;96484.41;;;16.64;100.00
44131;BME280;29792;48.726;9.248;2023-05-21T06:13:00;96481.16;;;16.70;100.00
44131;BME280;29792;48.726;9.248;2023-05-21T06:15:25;96485.81;;;16.74;100.00
44131;BME280;29792;48.726;9.248;2023-05-21T06:17:50;96481.88;;;16.78;100.00
44131;BME280;29792;48.726;9.248;2023-05-21T06:20:16;96476.63;;;16.87;100.00
44131;BME280;29792;48.726;9.248;2023-05-21T06:22:41;96481.13;;;16.93;100.00
44131;BME280;29792;48.726;9.248;2023-05-21T06:25:07;96480.25;;;17.00;100.00
44131;BME280;29792;48.726;9.248;2023-05-21T06:27:32;96482.94;;;17.07;100.00
44131;BME280;29792;48.726;9.248;2023-05-21T06:29:57;96478.00;;;17.12;100.00
44131;BME280;29792;48.726;9.248;2023-05-21T06:32:23;96483.31;;;17.19;100.00
44131;BME280;29792;48.726;9.248;2023-05-21T06:34:49;96480.19;;;17.23;100.00
44131;BME280;29792;48.726;9.248;2023-05-21T06:37:18;96483.66;;;17.30;100.00
44131;BME280;29792;48.726;9.248;2023-05-21T06:39:44;96486.81;;;17.40;100.00
44131;BME280;29792;48.726;9.248;2023-05-21T06:42:10;96481.72;;;17.47;100.00
44131;BME280;29792;48.726;9.248;2023-05-21T06:44:35;96481.00;;;17.53;100.00
44131;BME280;29792;48.726;9.248;2023-05-21T06:47:00;96478.69;;;17.58;100.00
44131;BME280;29792;48.726;9.248;2023-05-21T06:49:26;96483.16;;;17.64;100.00
44131;BME280;29792;48.726;9.248;2023-05-21T06:51:51;96484.41;;;17.68;100.00
44131;BME280;29792;48.726;9.248;2023-05-21T06:54:16;96482.91;;;17.74;99.60
44131;BME280;29792;48.726;9.248;2023-05-21T06:56:41;96488.78;;;17.82;99.42
44131;BME280;29792;48.726;9.248;2023-05-21T06:59:07;96488.31;;;17.93;99.14
44131;BME280;29792;48.726;9.248;2023-05-21T07:01:32;96495.28;;;18.08;98.43
44131;BME280;29792;48.726;9.248;2023-05-21T07:03:58;96481.88;;;18.25;97.97
44131;BME280;29792;48.726;9.248;2023-05-21T07:06:23;96493.47;;;18.44;96.39
44131;BME280;29792;48.726;9.248;2023-05-21T07:08:48;96487.59;;;18.57;95.83
44131;BME280;29792;48.726;9.248;2023-05-21T07:11:14;96492.75;;;18.72;94.67
44131;BME280;29792;48.726;9.248;2023-05-21T07:13:39;96494.88;;;18.89;93.01
44131;BME280;29792;48.726;9.248;2023-05-21T07:16:05;96499.22;;;19.03;90.77
44131;BME280;29792;48.726;9.248;2023-05-21T07:18:30;96495.72;;;19.18;88.71
44131;BME280;29792;48.726;9.248;2023-05-21T07:20:55;96498.78;;;19.28;87.55
44131;BME280;29792;48.726;9.248;2023-05-21T07:23:21;96500.66;;;19.40;87.43
44131;BME280;29792;48.726;9.248;2023-05-21T07:25:46;96501.19;;;19.57;87.21
44131;BME280;29792;48.726;9.248;2023-05-21T07:28:11;96494.69;;;19.74;86.24
44131;BME280;29792;48.726;9.248;2023-05-21T07:30:37;96493.13;;;19.87;85.03
44131;BME280;29792;48.726;9.248;2023-05-21T07:33:02;96499.81;;;20.02;84.79
44131;BME280;29792;48.726;9.248;2023-05-21T07:35:27;96493.25;;;20.19;83.06
44131;BME280;29792;48.726;9.248;2023-05-21T07:37:53;96492.50;;;20.32;81.86
44131;BME280;29792;48.726;9.248;2023-05-21T07:40:18;96496.56;;;20.48;81.64
44131;BME280;29792;48.726;9.248;2023-05-21T07:42:43;96502.22;;;20.71;81.76
44131;BME280;29792;48.726;9.248;2023-05-21T07:45:09;96497.41;;;20.94;80.51
44131;BME280;29792;48.726;9.248;2023-05-21T07:47:34;96498.00;;;21.16;79.47
44131;BME280;29792;48.726;9.248;2023-05-21T07:49:59;96495.25;;;21.31;76.94
44131;BME280;29792;48.726;9.248;2023-05-21T07:52:25;96499.81;;;21.42;75.63
44131;BME280;29792;48.726;9.248;2023-05-21T07:54:50;96495.41;;;21.56;76.13
44131;BME280;29792;48.726;9.248;2023-05-21T07:57:15;96498.13;;;21.74;75.25
44131;BME280;29792;48.726;9.248;2023-05-21T07:59:40;96494.69;;;21.87;73.83
44131;BME280;29792;48.726;9.248;2023-05-21T08:02:06;96497.47;;;21.98;73.85
44131;BME280;29792;48.726;9.248;2023-05-21T08:04:31;96491.03;;;22.07;71.75
44131;BME280;29792;48.726;9.248;2023-05-21T08:06:57;96490.38;;;22.19;71.81
44131;BME280;29792;48.726;9.248;2023-05-21T08:09:22;96488.34;;;22.27;71.57
44131;BME280;29792;48.726;9.248;2023-05-21T08:11:47;96483.06;;;22.34;70.25
44131;BME280;29792;48.726;9.248;2023-05-21T08:14:13;96483.41;;;22.44;71.22
44131;BME280;29792;48.726;9.248;2023-05-21T08:16:38;96482.31;;;22.58;70.13
44131;BME280;29792;48.726;9.248;2023-05-21T08:19:03;96485.69;;;22.65;69.72
44131;BME280;29792;48.726;9.248;2023-05-21T08:21:28;96485.47;;;22.67;67.36
44131;BME280;29792;48.726;9.248;2023-05-21T08:23:54;96487.88;;;22.68;67.81
44131;BME280;29792;48.726;9.248;2023-05-21T08:26:19;96489.84;;;22.73;69.09
44131;BME280;29792;48.726;9.248;2023-05-21T08:28:45;96488.81;;;22.80;68.84
44131;BME280;29792;48.726;9.248;2023-05-21T08:31:10;96490.97;;;22.90;69.48
44131;BME280;29792;48.726;9.248;2023-05-21T08:33:36;96493.91;;;23.00;67.80
44131;BME280;29792;48.726;9.248;2023-05-21T08:36:06;96495.91;;;22.98;66.54
44131;BME280;29792;48.726;9.248;2023-05-21T08:38:32;96493.97;;;22.94;65.77
44131;BME280;29792;48.726;9.248;2023-05-21T08:40:58;96493.97;;;22.94;65.51
44131;BME280;29792;48.726;9.248;2023-05-21T08:43:27;96496.53;;;23.00;65.39
44131;BME280;29792;48.726;9.248;2023-05-21T08:45:54;96486.28;;;22.99;65.75
44131;BME280;29792;48.726;9.248;2023-05-21T08:48:21;96499.50;;;23.04;66.18
44131;BME280;29792;48.726;9.248;2023-05-21T08:50:49;96489.56;;;23.12;66.73
44131;BME280;29792;48.726;9.248;2023-05-21T08:53:15;96491.09;;;23.20;66.46
44131;BME280;29792;48.726;9.248;2023-05-21T08:55:41;96489.69;;;23.24;65.15
44131;BME280;29792;48.726;9.248;2023-05-21T08:58:08;96486.88;;;23.19;64.89
44131;BME280;29792;48.726;9.248;2023-05-21T09:00:36;96487.13;;;23.17;63.89
44131;BME280;29792;48.726;9.248;2023-05-21T09:03:04;96495.00;;;23.11;64.29
44131;BME280;29792;48.726;9.248;2023-05-21T09:05:33;96500.06;;;23.06;64.83
44131;BME280;29792;48.726;9.248;2023-05-21T09:08:04;96501.53;;;23.02;64.33
44131;BME280;29792;48.726;9.248;2023-05-21T09:10:37;96511.22;;;22.95;64.43
44131;BME280;29792;48.726;9.248;2023-05-21T09:13:03;96508.84;;;22.87;64.72
44131;BME280;29792;48.726;9.248;2023-05-21T09:15:29;96503.13;;;22.78;65.12
44131;BME280;29792;48.726;9.248;2023-05-21T09:17:54;96503.13;;;22.71;66.12
44131;BME280;29792;48.726;9.248;2023-05-21T09:20:24;96505.41;;;22.61;65.53
44131;BME280;29792;48.726;9.248;2023-05-21T09:22:51;96501.25;;;22.54;66.54
44131;BME280;29792;48.726;9.248;2023-05-21T09:25:25;96505.69;;;22.46;66.04
44131;BME280;29792;48.726;9.248;2023-05-21T09:27:54;96509.34;;;22.39;66.66
44131;BME280;29792;48.726;9.248;2023-05-21T09:30:20;96508.75;;;22.37;67.63
44131;BME280;29792;48.726;9.248;2023-05-21T09:32:51;96501.94;;;22.36;67.65
44131;BME280;29792;48.726;9.248;2023-05-21T09:35:19;96510.34;;;22.38;68.38
44131;BME280;29792;48.726;9.248;2023-05-21T09:37:47;96504.50;;;22.42;69.46
44131;BME280;29792;48.726;9.248;2023-05-21T09:40:17;96503.06;;;22.46;69.64
44131;BME280;29792;48.726;9.248;2023-05-21T09:42:48;96505.47;;;22.48;69.96
44131;BME280;29792;48.726;9.248;2023-05-21T09:45:21;96507.06;;;22.49;69.40
44131;BME280;29792;48.726;9.248;2023-05-21T09:47:48;96502.44;;;22.51;68.45
44131;BME280;29792;48.726;9.248;2023-05-21T09:50:21;96504.84;;;22.53;69.64
44131;BME280;29792;48.726;9.248;2023-05-21T09:52:48;96511.84;;;22.59;70.89
44131;BME280;29792;48.726;9.248;2023-05-21T09:55:15;96515.81;;;22.68;70.76
44131;BME280;29792;48.726;9.248;2023-05-21T09:57:42;96502.91;;;22.73;69.66
44131;BME280;29792;48.726;9.248;2023-05-21T10:00:21;96504.94;;;22.77;69.39
44131;BME280;29792;48.726;9.248;2023-05-21T10:02:48;96507.09;;;22.80;67.96
44131;BME280;29792;48.726;9.248;2023-05-21T10:05:15;96507.75;;;22.76;67.59
44131;BME280;29792;48.726;9.248;2023-05-21T10:07:48;96503.53;;;22.75;68.29
44131;BME280;29792;48.726;9.248;2023-05-21T10:10:14;96514.94;;;22.80;68.78
44131;BME280;29792;48.726;9.248;2023-05-21T10:12:42;96506.69;;;22.83;67.58
44131;BME280;29792;48.726;9.248;2023-05-21T10:15:12;96512.50;;;22.86;67.47
44131;BME280;29792;48.726;9.248;2023-05-21T10:17:38;96512.72;;;22.84;65.71
44131;BME280;29792;48.726;9.248;2023-05-21T10:20:06;96509.50;;;22.82;66.66
44131;BME280;29792;48.726;9.248;2023-05-21T10:22:33;96506.09;;;22.81;66.47
44131;BME280;29792;48.726;9.248;2023-05-21T10:24:59;96501.88;;;22.80;67.20
44131;BME280;29792;48.726;9.248;2023-05-21T10:27:28;96500.66;;;22.83;68.01
44131;BME280;29792;48.726;9.248;2023-05-21T10:29:56;96496.84;;;22.86;67.63
44131;BME280;29792;48.726;9.248;2023-05-21T10:32:21;96498.06;;;22.83;67.28
44131;BME280;29792;48.726;9.248;2023-05-21T10:34:48;96499.25;;;22.80;68.06
44131;BME280;29792;48.726;9.248;2023-05-21T10:37:15;96497.66;;;22.79;67.48
44131;BME280;29792;48.726;9.248;2023-05-21T10:39:42;96493.69;;;22.77;66.79
44131;BME280;29792;48.726;9.248;2023-05-21T10:50:45;96496.31;;;23.02;68.68
44131;BME280;29792;48.726;9.248;2023-05-21T10:53:42;96488.41;;;23.08;67.65
44131;BME280;29792;48.726;9.248;2023-05-21T11:02:05;96477.28;;;23.38;67.17
44131;BME280;29792;48.726;9.248;2023-05-21T11:04:31;96482.66;;;23.43;66.79
44131;BME280;29792;48.726;9.248;2023-05-21T11:06:58;96477.78;;;23.46;65.28
44131;BME280;29792;48.726;9.248;2023-05-21T11:09:25;96478.59;;;23.47;64.09
44131;BME280;29792;48.726;9.248;2023-05-21T11:11:52;96483.44;;;23.50;64.40
44131;BME280;29792;48.726;9.248;2023-05-21T11:14:38;96488.22;;;23.53;65.19
44131;BME280;29792;48.726;9.248;2023-05-21T11:20:06;96486.56;;;23.58;63.65
44131;BME280;29792;48.726;9.248;2023-05-21T11:22:34;96492.81;;;23.57;63.71
44131;BME280;29792;48.726;9.248;2023-05-21T11:25:01;96491.00;;;23.58;64.11
44131;BME280;29792;48.726;9.248;2023-05-21T11:27:38;96485.31;;;23.61;64.06
44131;BME280;29792;48.726;9.248;2023-05-21T11:30:05;96496.50;;;23.68;63.70
44131;BME280;29792;48.726;9.248;2023-05-21T11:32:35;96484.22;;;23.69;62.23
44131;BME280;29792;48.726;9.248;2023-05-21T11:35:01;96483.41;;;23.68;63.33
44131;BME280;29792;48.726;9.248;2023-05-21T11:37:27;96477.63;;;23.66;62.37
44131;BME280;29792;48.726;9.248;2023-05-21T11:39:55;96480.25;;;23.66;62.48
44131;BME280;29792;48.726;9.248;2023-05-21T11:42:37;96475.94;;;23.72;64.33
44131;BME280;29792;48.726;9.248;2023-05-21T11:45:04;96480.88;;;23.80;63.37
44131;BME280;29792;48.726;9.248;2023-05-21T11:47:30;96482.63;;;23.86;62.99
44131;BME280;29792;48.726;9.248;2023-05-21T11:50:02;96480.59;;;23.88;62.97
44131;BME280;29792;48.726;9.248;2023-05-21T11:52:29;96486.63;;;23.88;62.09
44131;BME280;29792;48.726;9.248;2023-05-21T11:54:54;96484.22;;;23.87;61.52
44131;BME280;29792;48.726;9.248;2023-05-21T11:57:22;96488.44;;;23.88;62.45
44131;BME280;29792;48.726;9.248;2023-05-21T11:59:49;96481.72;;;23.92;63.65
44131;BME280;29792;48.726;9.248;2023-05-21T12:02:18;96487.13;;;23.97;62.38
44131;BME280;29792;48.726;9.248;2023-05-21T12:04:45;96484.72;;;23.95;61.10
44131;BME280;29792;48.726;9.248;2023-05-21T12:07:12;96488.72;;;23.98;61.92
44131;BME280;29792;48.726;9.248;2023-05-21T12:09:40;96491.13;;;24.00;60.09
44131;BME280;29792;48.726;9.248;2023-05-21T12:12:07;96487.84;;;24.04;60.97
44131;BME280;29792;48.726;9.248;2023-05-21T12:14:33;96493.00;;;24.11;61.76
44131;BME280;29792;48.726;9.248;2023-05-21T12:16:59;96483.44;;;24.16;62.11
44131;BME280;29792;48.726;9.248;2023-05-21T12:19:24;96481.19;;;24.20;60.91
44131;BME280;29792;48.726;9.248;2023-05-21T12:21:50;96486.84;;;24.23;60.38
44131;BME280;29792;48.726;9.248;2023-05-21T12:24:15;96490.69;;;24.21;60.88
44131;BME280;29792;48.726;9.248;2023-05-21T12:26:42;96491.88;;;24.18;59.77
44131;BME280;29792;48.726;9.248;2023-05-21T12:29:09;96491.09;;;24.18;59.97
44131;BME280;29792;48.726;9.248;2023-05-21T12:31:46;96491.53;;;24.15;58.22
44131;BME280;29792;48.726;9.248;2023-05-21T12:34:13;96489.13;;;24.13;58.18
44131;BME280;29792;48.726;9.248;2023-05-21T12:36:41;96485.28;;;24.16;58.40
44131;BME280;29792;48.726;9.248;2023-05-21T12:39:10;96489.25;;;24.18;58.85
44131;BME280;29792;48.726;9.248;2023-05-21T12:41:35;96493.09;;;24.22;58.72
44131;BME280;29792;48.726;9.248;2023-05-21T12:44:01;96481.59;;;24.23;58.22
44131;BME280;29792;48.726;9.248;2023-05-21T12:46:26;96487.38;;;24.25;58.88
44131;BME280;29792;48.726;9.248;2023-05-21T12:48:52;96488.19;;;24.26;57.62
44131;BME280;29792;48.726;9.248;2023-05-21T12:51:18;96483.53;;;24.28;57.27
44131;BME280;29792;48.726;9.248;2023-05-21T12:53:45;96486.75;;;24.30;56.61
44131;BME280;29792;48.726;9.248;2023-05-21T12:56:11;96489.69;;;24.33;57.20
44131;BME280;29792;48.726;9.248;2023-05-21T12:58:36;96497.13;;;24.37;56.95
44131;BME280;29792;48.726;9.248;2023-05-21T13:01:11;96493.69;;;24.36;56.29
44131;BME280;29792;48.726;9.248;2023-05-21T13:03:37;96496.09;;;24.38;55.27
44131;BME280;29792;48.726;9.248;2023-05-21T13:06:06;96493.81;;;24.41;55.00
44131;BME280;29792;48.726;9.248;2023-05-21T13:08:32;96493.59;;;24.43;55.68
44131;BME280;29792;48.726;9.248;2023-05-21T13:11:02;96493.50;;;24.49;56.06